createdAt,value
2018-12-21T00:00:01.799Z,81.65
2018-12-21T00:02:31.399Z,81.48
2018-12-21T00:05:00.971Z,81.68
2018-12-21T00:07:30.702Z,81.03
2018-12-21T00:10:00.667Z,80.82
2018-12-21T00:12:30.260Z,81.30
2018-12-21T00:15:00.074Z,80.55
2018-12-21T00:17:34.462Z,80.67
2018-12-21T00:19:59.653Z,81.13
2018-12-21T00:22:29.315Z,80.60
2018-12-21T00:24:58.782Z,81.15
2018-12-21T00:27:28.414Z,81.41
2018-12-21T00:29:58.004Z,81.48
2018-12-21T00:32:32.641Z,82.21
2018-12-21T00:35:07.470Z,82.53
2018-12-21T00:37:42.233Z,83.67
2018-12-21T00:40:16.903Z,83.49
2018-12-21T00:42:51.691Z,82.85
2018-12-21T00:45:24.514Z,82.32
2018-12-21T00:47:54.467Z,81.81
2018-12-21T00:50:23.877Z,82.08
2018-12-21T00:52:53.399Z,81.78
2018-12-21T01:12:45.393Z,80.83
2018-12-21T01:15:15.132Z,80.90
2018-12-21T01:17:44.713Z,80.70
2018-12-21T01:20:14.562Z,80.56
2018-12-21T01:22:44.163Z,80.73
2018-12-21T01:25:13.811Z,81.18
2018-12-21T01:27:44.247Z,80.61
2018-12-21T01:30:13.743Z,80.45
2018-12-21T01:32:43.387Z,80.25
2018-12-21T01:35:13.168Z,81.12
2018-12-21T01:37:42.592Z,81.29
2018-12-21T01:40:12.240Z,80.51
2018-12-21T01:42:42.160Z,80.34
2018-12-21T01:45:11.843Z,80.24
2018-12-21T01:47:41.533Z,80.52
2018-12-21T01:50:11.385Z,80.62
2018-12-21T01:52:40.929Z,80.06
2018-12-21T01:55:10.599Z,80.36
2018-12-21T01:57:40.591Z,80.68
2018-12-21T02:00:10.469Z,80.25
2018-12-21T02:02:40.397Z,80.01
2018-12-21T02:05:09.943Z,79.70
2018-12-21T02:07:39.744Z,80.43
2018-12-21T02:10:09.272Z,80.12
2018-12-21T02:12:38.640Z,80.22
2018-12-21T02:15:08.466Z,80.90
2018-12-21T02:17:38.106Z,80.26
2018-12-21T02:20:08.084Z,80.55
2018-12-21T02:22:37.775Z,80.74
2018-12-21T02:25:07.468Z,81.00
2018-12-21T02:27:37.032Z,80.93
2018-12-21T02:30:07.900Z,80.34
2018-12-21T02:32:37.949Z,79.85
2018-12-21T02:35:07.473Z,79.90
2018-12-21T02:54:59.711Z,80.76
2018-12-21T03:14:51.991Z,80.24
2018-12-21T03:34:43.836Z,80.43
2018-12-21T03:57:03.715Z,80.82
2018-12-21T03:59:33.359Z,81.18
2018-12-21T04:02:03.140Z,80.59
2018-12-21T04:04:32.971Z,80.65
2018-12-21T04:07:02.718Z,81.12
2018-12-21T04:09:32.412Z,81.08
2018-12-21T04:12:02.152Z,81.11
2018-12-21T04:14:31.749Z,80.90
2018-12-21T04:17:01.371Z,81.66
2018-12-21T04:19:30.945Z,81.35
2018-12-21T04:22:00.664Z,81.81
2018-12-21T04:24:30.586Z,81.46
2018-12-21T04:27:00.296Z,80.95
2018-12-21T04:29:29.902Z,80.71
2018-12-21T04:31:59.745Z,80.35
2018-12-21T04:34:29.314Z,80.55
2018-12-21T04:36:58.877Z,80.18
2018-12-21T04:39:28.536Z,80.67
2018-12-21T04:41:58.337Z,79.89
2018-12-21T04:44:28.287Z,80.13
2018-12-21T04:46:57.823Z,79.89
2018-12-21T04:49:27.426Z,80.38
2018-12-21T04:51:57.096Z,80.57
2018-12-21T04:54:26.804Z,80.12
2018-12-21T04:56:56.662Z,80.27
2018-12-21T04:59:27.768Z,80.84
2018-12-21T05:01:57.411Z,80.33
2018-12-21T05:04:26.878Z,80.78
2018-12-21T05:06:56.587Z,80.07
2018-12-21T05:09:26.296Z,80.46
2018-12-21T05:11:55.868Z,80.96
2018-12-21T05:14:25.317Z,81.31
2018-12-21T05:16:55.349Z,80.86
2018-12-21T05:19:24.713Z,81.33
2018-12-21T05:21:54.339Z,81.11
2018-12-21T05:24:23.917Z,81.28
2018-12-21T05:26:53.397Z,81.15
2018-12-21T05:29:24.253Z,81.41
2018-12-21T05:31:54.147Z,80.32
2018-12-21T05:34:23.424Z,80.06
2018-12-21T05:36:53.997Z,80.30
2018-12-21T05:39:23.468Z,80.18
2018-12-21T05:41:54.068Z,80.20
2018-12-21T05:44:23.604Z,80.09
2018-12-21T05:46:53.179Z,79.43
2018-12-21T05:49:22.594Z,79.98
2018-12-21T05:51:52.548Z,81.38
2018-12-21T05:54:21.928Z,83.31
2018-12-21T05:56:51.657Z,84.89
2018-12-21T05:59:21.451Z,84.93
2018-12-21T06:01:51.140Z,84.38
2018-12-21T06:04:20.546Z,83.24
2018-12-21T06:06:50.388Z,81.70
2018-12-21T06:09:19.956Z,81.26
2018-12-21T06:11:49.669Z,80.69
2018-12-21T06:14:19.507Z,81.10
2018-12-21T06:16:49.106Z,80.90
2018-12-21T06:19:18.604Z,80.85
2018-12-21T06:21:48.524Z,81.46
2018-12-21T06:24:18.408Z,81.43
2018-12-21T06:26:47.943Z,82.20
2018-12-21T06:29:17.776Z,82.05
2018-12-21T06:31:47.111Z,82.59
2018-12-21T06:34:16.900Z,83.34
2018-12-21T06:36:46.545Z,84.00
2018-12-21T06:39:16.038Z,83.11
2018-12-21T06:41:45.928Z,82.74
2018-12-21T06:44:15.664Z,82.24
2018-12-21T06:46:45.115Z,81.98
2018-12-21T06:49:14.845Z,81.01
2018-12-21T06:51:44.536Z,80.66
2018-12-21T06:54:14.135Z,80.80
2018-12-21T06:56:44.002Z,81.17
2018-12-21T06:59:13.555Z,80.82
2018-12-21T07:01:43.150Z,80.42
2018-12-21T07:04:13.217Z,80.62
2018-12-21T07:06:42.949Z,80.21
2018-12-21T07:09:12.611Z,80.49
2018-12-21T07:11:42.159Z,80.84
2018-12-21T07:14:11.768Z,80.85
2018-12-21T07:16:41.519Z,80.56
2018-12-21T07:19:11.043Z,80.92
2018-12-21T07:21:40.694Z,80.62
2018-12-21T07:24:10.266Z,80.72
2018-12-21T07:26:39.770Z,81.46
2018-12-21T07:29:09.316Z,81.49
2018-12-21T07:31:41.526Z,80.79
2018-12-21T07:34:11.246Z,80.45
2018-12-21T07:36:41.133Z,81.26
2018-12-21T07:39:10.760Z,81.70
2018-12-21T07:41:40.258Z,81.05
2018-12-21T07:44:10.155Z,80.76
2018-12-21T07:46:39.807Z,80.69
2018-12-21T07:49:09.194Z,80.65
2018-12-21T07:51:38.812Z,81.42
2018-12-21T07:54:08.324Z,81.01
2018-12-21T07:56:37.807Z,80.87
2018-12-21T07:59:07.596Z,81.00
2018-12-21T08:01:37.283Z,80.15
2018-12-21T08:04:06.965Z,79.72
2018-12-21T08:06:36.650Z,78.95
2018-12-21T08:09:07.592Z,79.04
2018-12-21T08:11:37.079Z,79.94
2018-12-21T08:14:07.077Z,78.92
2018-12-21T08:16:36.631Z,79.18
2018-12-21T08:19:06.035Z,79.17
2018-12-21T08:21:35.789Z,79.16
2018-12-21T08:24:05.251Z,79.59
2018-12-21T08:26:34.854Z,79.20
2018-12-21T08:29:04.595Z,79.31
2018-12-21T08:31:34.375Z,79.42
2018-12-21T08:34:05.304Z,79.98
2018-12-21T08:36:35.036Z,79.79
2018-12-21T08:39:05.179Z,79.44
2018-12-21T08:41:34.925Z,79.37
2018-12-21T08:44:04.608Z,79.75
2018-12-21T08:46:34.185Z,79.83
2018-12-21T08:49:03.957Z,79.62
2018-12-21T08:51:33.313Z,79.96
2018-12-21T08:54:03.012Z,79.29
2018-12-21T08:56:32.857Z,79.35
2018-12-21T08:59:02.527Z,79.11
2018-12-21T09:01:31.977Z,78.98
2018-12-21T09:04:01.756Z,78.61
2018-12-21T09:06:31.355Z,78.70
2018-12-21T09:09:01.064Z,78.55
2018-12-21T09:11:30.927Z,78.60
2018-12-21T09:14:00.375Z,78.81
2018-12-21T09:16:30.506Z,79.10
2018-12-21T09:19:00.244Z,79.87
2018-12-21T09:21:30.033Z,79.48
2018-12-21T09:24:01.227Z,78.43
2018-12-21T09:26:29.374Z,78.21
2018-12-21T09:28:58.850Z,77.85
2018-12-21T09:31:28.355Z,78.14
2018-12-21T09:33:58.236Z,78.63
2018-12-21T09:36:27.866Z,78.50
2018-12-21T09:38:57.450Z,78.72
2018-12-21T09:41:27.491Z,78.12
2018-12-21T09:43:56.888Z,77.90
2018-12-21T09:46:26.524Z,77.51
2018-12-21T09:48:56.273Z,77.54
2018-12-21T09:51:25.658Z,78.12
2018-12-21T09:53:55.205Z,77.76
2018-12-21T09:56:24.976Z,78.00
2018-12-21T09:58:54.570Z,77.11
2018-12-21T10:01:24.012Z,76.21
2018-12-21T10:03:54.374Z,76.56
2018-12-21T10:06:23.759Z,76.58
2018-12-21T10:08:53.693Z,76.59
2018-12-21T10:11:22.994Z,76.57
2018-12-21T10:13:52.403Z,76.82
2018-12-21T10:16:22.107Z,76.39
2018-12-21T10:18:51.729Z,75.76
2018-12-21T10:21:21.313Z,75.43
2018-12-21T10:23:50.870Z,75.72
2018-12-21T10:26:20.443Z,75.84
2018-12-21T10:28:50.210Z,75.42
2018-12-21T10:31:19.956Z,75.60
2018-12-21T10:33:49.546Z,75.34
2018-12-21T10:36:19.236Z,75.24
2018-12-21T10:38:48.660Z,76.00
2018-12-21T10:41:18.240Z,75.25
2018-12-21T10:43:47.912Z,75.53
2018-12-21T10:46:17.651Z,75.15
2018-12-21T10:48:47.084Z,75.37
2018-12-21T10:51:16.618Z,74.88
2018-12-21T10:53:46.824Z,74.33
2018-12-21T10:56:16.181Z,74.87
2018-12-21T10:58:45.652Z,75.16
2018-12-21T11:01:15.366Z,75.64
2018-12-21T11:03:45.094Z,75.25
2018-12-21T11:06:14.710Z,73.94
2018-12-21T11:08:44.675Z,74.87
2018-12-21T11:11:14.216Z,74.63
2018-12-21T11:13:43.993Z,73.86
2018-12-21T11:16:13.463Z,73.26
2018-12-21T11:18:43.052Z,74.06
2018-12-21T11:21:12.678Z,74.21
2018-12-21T11:23:42.280Z,74.61
2018-12-21T11:26:11.851Z,74.29
2018-12-21T11:28:41.680Z,74.62
2018-12-21T11:31:11.523Z,74.31
2018-12-21T11:33:40.864Z,74.34
2018-12-21T11:36:10.695Z,73.96
2018-12-21T11:38:40.229Z,73.71
2018-12-21T11:41:09.654Z,74.29
2018-12-21T11:43:39.559Z,73.87
2018-12-21T11:46:09.188Z,74.06
2018-12-21T11:48:38.735Z,72.97
2018-12-21T11:51:08.591Z,72.49
2018-12-21T11:53:38.062Z,72.83
2018-12-21T11:56:07.679Z,72.63
2018-12-21T11:58:37.539Z,72.38
2018-12-21T12:01:07.224Z,72.45
2018-12-21T12:03:38.565Z,73.50
2018-12-21T12:06:08.634Z,73.27
2018-12-21T12:08:38.248Z,73.33
2018-12-21T12:11:08.058Z,73.67
2018-12-21T12:13:37.803Z,74.62
2018-12-21T12:16:07.298Z,74.37
2018-12-21T12:18:37.377Z,73.85
2018-12-21T12:21:06.911Z,73.40
2018-12-21T12:23:36.524Z,73.56
2018-12-21T12:26:06.118Z,73.44
2018-12-21T12:28:35.630Z,72.09
2018-12-21T12:31:05.159Z,69.55
2018-12-21T12:33:34.994Z,68.14
2018-12-21T12:36:05.249Z,68.29
2018-12-21T12:38:34.935Z,67.30
2018-12-21T12:41:06.775Z,67.29
2018-12-21T12:43:34.546Z,67.79
2018-12-21T12:46:04.162Z,66.52
2018-12-21T12:48:33.570Z,66.71
2018-12-21T12:51:03.276Z,67.82
2018-12-21T12:53:32.864Z,68.63
2018-12-21T12:56:05.126Z,68.17
2018-12-21T12:58:32.593Z,68.83
2018-12-21T13:01:02.300Z,70.00
2018-12-21T13:03:32.138Z,70.47
2018-12-21T13:06:01.816Z,71.19
2018-12-21T13:08:31.313Z,71.73
2018-12-21T13:11:01.275Z,72.52
2018-12-21T13:13:31.019Z,73.27
2018-12-21T13:16:00.655Z,73.81
2018-12-21T13:18:30.307Z,74.20
2018-12-21T13:20:59.863Z,73.82
2018-12-21T13:23:29.404Z,73.92
2018-12-21T13:25:58.915Z,73.50
2018-12-21T13:28:28.616Z,73.35
2018-12-21T13:30:58.326Z,73.39
2018-12-21T13:33:28.357Z,73.63
2018-12-21T13:35:57.828Z,74.13
2018-12-21T13:38:27.331Z,74.63
2018-12-21T13:40:56.775Z,74.30
2018-12-21T13:43:26.136Z,74.02
2018-12-21T13:45:55.961Z,74.10
2018-12-21T13:48:25.796Z,74.55
2018-12-21T13:50:55.384Z,74.57
2018-12-21T13:53:24.791Z,73.97
2018-12-21T13:55:54.920Z,73.82
2018-12-21T13:58:24.263Z,73.66
2018-12-21T14:00:53.705Z,73.73
2018-12-21T14:03:23.072Z,73.63
2018-12-21T14:05:52.822Z,74.61
2018-12-21T14:08:22.214Z,74.38
2018-12-21T14:10:52.058Z,74.51
2018-12-21T14:13:21.551Z,73.74
2018-12-21T14:15:50.955Z,74.23
2018-12-21T14:18:20.640Z,74.84
2018-12-21T14:20:50.160Z,74.97
2018-12-21T14:23:19.880Z,75.39
2018-12-21T14:25:49.512Z,75.16
2018-12-21T14:28:19.272Z,75.21
2018-12-21T14:30:49.114Z,74.31
2018-12-21T14:33:18.847Z,74.94
2018-12-21T14:35:48.532Z,74.54
2018-12-21T14:38:17.938Z,74.74
2018-12-21T14:40:47.583Z,75.08
2018-12-21T14:43:17.048Z,75.16
2018-12-21T14:45:46.770Z,75.57
2018-12-21T14:48:16.274Z,75.18
2018-12-21T14:50:45.894Z,75.24
2018-12-21T14:53:15.609Z,75.33
2018-12-21T14:55:45.287Z,75.00
2018-12-21T14:58:14.847Z,75.65
2018-12-21T15:00:44.392Z,75.52
2018-12-21T15:03:14.259Z,74.89
2018-12-21T15:05:43.822Z,74.87
2018-12-21T15:08:13.533Z,75.20
2018-12-21T15:10:43.055Z,75.88
2018-12-21T15:13:12.624Z,76.12
2018-12-21T15:15:42.171Z,75.75
2018-12-21T15:18:12.617Z,76.13
2018-12-21T15:20:42.212Z,75.79
2018-12-21T15:23:11.802Z,76.26
2018-12-21T15:25:46.002Z,76.11
2018-12-21T15:28:11.260Z,75.79
2018-12-21T15:30:40.683Z,75.77
2018-12-21T15:33:10.500Z,75.74
2018-12-21T15:35:40.225Z,75.73
2018-12-21T15:38:09.756Z,75.89
2018-12-21T15:40:39.713Z,75.30
2018-12-21T15:43:09.202Z,75.23
2018-12-21T15:45:38.987Z,75.48
2018-12-21T15:48:08.892Z,75.65
2018-12-21T15:50:38.372Z,75.53
2018-12-21T15:53:07.993Z,75.66
2018-12-21T15:55:37.725Z,76.35
2018-12-21T15:58:07.135Z,76.79
2018-12-21T16:00:36.517Z,77.52
2018-12-21T16:03:07.011Z,77.53
2018-12-21T16:05:36.755Z,77.86
2018-12-21T16:08:06.617Z,77.00
2018-12-21T16:10:36.404Z,77.29
2018-12-21T16:13:05.917Z,76.66
2018-12-21T16:15:35.477Z,77.49
2018-12-21T16:18:05.160Z,77.14
2018-12-21T16:20:34.745Z,76.72
2018-12-21T16:23:04.293Z,76.08
2018-12-21T16:25:34.158Z,76.32
2018-12-21T16:28:03.714Z,76.80
2018-12-21T16:30:33.480Z,76.92
2018-12-21T16:33:03.179Z,77.43
2018-12-21T16:35:32.582Z,77.19
2018-12-21T16:38:02.477Z,77.46
2018-12-21T16:40:31.886Z,77.27
2018-12-21T16:43:01.415Z,76.87
2018-12-21T16:45:31.037Z,76.48
2018-12-21T16:48:00.650Z,76.19
2018-12-21T16:50:31.088Z,76.07
2018-12-21T16:53:00.632Z,76.52
2018-12-21T16:55:30.208Z,77.12
2018-12-21T16:58:00.017Z,77.35
2018-12-21T17:00:29.480Z,77.59
2018-12-21T17:02:59.137Z,76.77
2018-12-21T17:05:28.756Z,76.77
2018-12-21T17:07:58.440Z,78.48
2018-12-21T17:10:28.017Z,77.75
2018-12-21T17:12:57.882Z,77.50
2018-12-21T17:15:27.415Z,77.23
2018-12-21T17:17:57.165Z,77.47
2018-12-21T17:20:26.895Z,77.33
2018-12-21T17:22:56.466Z,77.43
2018-12-21T17:25:28.204Z,77.36
2018-12-21T17:27:57.852Z,76.96
2018-12-21T17:30:27.467Z,76.69
2018-12-21T17:32:57.196Z,76.37
2018-12-21T17:35:26.641Z,76.77
2018-12-21T17:37:56.316Z,76.47
2018-12-21T17:40:26.039Z,76.48
2018-12-21T17:42:55.505Z,76.66
2018-12-21T17:45:24.927Z,76.64
2018-12-21T17:47:54.724Z,76.65
2018-12-21T17:50:24.129Z,76.43
2018-12-21T17:52:53.833Z,75.96
2018-12-21T17:55:23.524Z,76.73
2018-12-21T17:57:53.046Z,76.56
2018-12-21T18:00:22.584Z,76.82
2018-12-21T18:02:55.744Z,76.61
2018-12-21T18:05:27.510Z,76.66
2018-12-21T18:07:58.062Z,77.16
2018-12-21T18:10:27.777Z,76.33
2018-12-21T18:12:57.301Z,76.96
2018-12-21T18:15:28.194Z,76.34
2018-12-21T18:17:57.719Z,76.55
2018-12-21T18:20:27.503Z,76.26
2018-12-21T18:22:57.184Z,76.89
2018-12-21T18:25:29.134Z,77.04
2018-12-21T18:28:01.386Z,76.76
2018-12-21T18:30:35.388Z,76.44
2018-12-21T18:33:10.881Z,76.50
2018-12-21T18:35:36.301Z,76.91
2018-12-21T18:38:09.170Z,76.88
2018-12-21T18:40:38.872Z,75.64
2018-12-21T18:43:08.722Z,75.60
2018-12-21T18:45:38.439Z,75.37
2018-12-21T18:48:08.252Z,76.24
2018-12-21T18:50:37.887Z,76.56
2018-12-21T18:53:07.601Z,75.95
2018-12-21T18:55:37.543Z,76.06
2018-12-21T18:58:07.087Z,76.38
2018-12-21T19:00:36.482Z,76.46
2018-12-21T19:03:06.398Z,75.83
2018-12-21T19:05:36.151Z,76.15
2018-12-21T19:08:05.846Z,76.87
2018-12-21T19:10:35.464Z,77.12
2018-12-21T19:13:05.086Z,76.42
2018-12-21T19:15:34.641Z,77.40
2018-12-21T19:18:04.567Z,77.31
2018-12-21T19:20:34.184Z,77.60
2018-12-21T19:23:03.911Z,78.18
2018-12-21T19:25:33.744Z,77.86
2018-12-21T19:28:03.243Z,77.74
2018-12-21T19:30:32.935Z,78.47
2018-12-21T19:33:02.772Z,78.19
2018-12-21T19:35:32.327Z,78.79
2018-12-21T19:38:01.912Z,78.14
2018-12-21T19:40:31.553Z,78.45
2018-12-21T19:43:01.397Z,78.33
2018-12-21T19:45:30.850Z,78.74
2018-12-21T19:48:00.597Z,79.20
2018-12-21T19:50:30.679Z,79.20
2018-12-21T19:53:02.471Z,79.58
2018-12-21T19:55:39.267Z,79.24
2018-12-21T19:58:08.837Z,79.90
2018-12-21T20:00:38.315Z,80.10
2018-12-21T20:03:08.134Z,80.97
2018-12-21T20:05:37.772Z,84.41
2018-12-21T20:08:07.345Z,84.38
2018-12-21T20:10:37.023Z,83.71
2018-12-21T20:13:06.790Z,82.35
2018-12-21T20:15:36.621Z,82.11
2018-12-21T20:18:06.579Z,81.23
2018-12-21T20:20:36.147Z,80.14
2018-12-21T20:23:05.747Z,79.78
2018-12-21T20:25:35.549Z,79.22
2018-12-21T20:28:05.496Z,79.53
2018-12-21T20:30:35.286Z,78.69
2018-12-21T20:33:05.188Z,79.35
2018-12-21T20:35:34.744Z,80.55
2018-12-21T20:38:04.617Z,80.36
2018-12-21T20:40:34.357Z,79.60
2018-12-21T20:43:04.147Z,80.28
2018-12-21T20:45:34.599Z,80.62
2018-12-21T20:48:04.379Z,80.78
2018-12-21T20:50:33.856Z,80.52
2018-12-21T20:53:04.473Z,80.43
2018-12-21T20:55:34.288Z,80.02
2018-12-21T20:58:11.256Z,80.10
2018-12-21T21:00:41.951Z,79.89
2018-12-21T21:03:11.767Z,80.13
2018-12-21T21:05:41.490Z,79.35
2018-12-21T21:08:11.319Z,79.51
2018-12-21T21:10:41.004Z,79.39
2018-12-21T21:13:19.007Z,79.04
2018-12-21T21:15:40.302Z,79.61
2018-12-21T21:18:09.920Z,78.61
2018-12-21T21:20:39.332Z,79.18
2018-12-21T21:23:09.208Z,79.23
2018-12-21T21:25:38.736Z,79.80
2018-12-21T21:28:08.265Z,79.71
2018-12-21T21:30:39.400Z,79.19
2018-12-21T21:33:08.852Z,79.47
2018-12-21T21:35:38.396Z,79.40
2018-12-21T21:38:08.261Z,79.12
2018-12-21T21:40:39.159Z,79.82
2018-12-21T21:43:12.055Z,79.84
2018-12-21T21:45:41.761Z,80.24
2018-12-21T21:48:11.575Z,80.69
2018-12-21T21:50:41.473Z,80.64
2018-12-21T21:53:11.219Z,80.75
2018-12-21T21:55:40.915Z,80.60
2018-12-21T21:58:10.842Z,81.02
2018-12-21T22:00:41.147Z,80.33
2018-12-21T22:03:10.626Z,80.48
2018-12-21T22:05:40.696Z,81.07
2018-12-21T22:08:10.279Z,81.10
2018-12-21T22:10:39.875Z,81.94
2018-12-21T22:13:09.634Z,82.43
2018-12-21T22:15:39.177Z,82.21
2018-12-21T22:18:08.743Z,82.71
2018-12-21T22:20:38.216Z,82.71
2018-12-21T22:23:07.651Z,82.78
2018-12-21T22:25:37.465Z,83.26
2018-12-21T22:28:07.341Z,84.00
2018-12-21T22:30:36.956Z,84.55
2018-12-21T22:33:06.589Z,84.21
2018-12-21T22:35:36.376Z,84.89
2018-12-21T22:38:05.984Z,85.32
2018-12-21T22:40:35.568Z,85.63
2018-12-21T22:43:05.481Z,85.29
2018-12-21T22:45:35.227Z,85.79
2018-12-21T22:48:04.623Z,84.90
2018-12-21T22:50:34.266Z,84.94
2018-12-21T22:53:03.822Z,85.17
2018-12-21T22:55:33.455Z,85.09
2018-12-21T22:58:03.348Z,85.06
2018-12-21T23:00:36.550Z,84.47
2018-12-21T23:03:06.028Z,84.17
2018-12-21T23:05:35.767Z,84.15
2018-12-21T23:08:05.484Z,84.07
2018-12-21T23:10:35.213Z,83.98
2018-12-21T23:13:04.904Z,83.61
2018-12-21T23:15:34.604Z,83.65
2018-12-21T23:18:04.561Z,84.17
2018-12-21T23:20:34.030Z,84.02
2018-12-21T23:23:03.510Z,83.44
2018-12-21T23:25:33.395Z,83.34
2018-12-21T23:28:05.251Z,83.13
2018-12-21T23:30:32.779Z,83.60
2018-12-21T23:33:02.684Z,83.24
2018-12-21T23:35:32.428Z,83.15
2018-12-21T23:38:02.342Z,82.63
2018-12-21T23:40:31.924Z,83.36
2018-12-21T23:43:01.536Z,82.96
2018-12-21T23:45:31.467Z,82.93
2018-12-21T23:48:01.165Z,82.63
2018-12-21T23:50:30.867Z,82.73
2018-12-21T23:53:00.830Z,82.84
2018-12-21T23:55:30.386Z,82.26
2018-12-21T23:57:59.999Z,82.16
